Time;durP1;ratioP1;P1;durP2;ratioP2;P2;SDS_P1;SDS_P2;PMS_P1;PMS_P2;Temp;Humidity;BMP_temperature;BMP_pressure;BME280_temperature;BME280_humidity;BME280_pressure;Samples;Min_cycle;Max_cycle;Signal;HPM_P1;HPM_P2
2021/10/21 00:01:46;;;;;;;;;;;20.60;99.90;;;;;;5091827;28;19916;-72
2021/10/21 00:04:12;;;;;;;;;;;20.90;99.90;;;;;;5092225;28;19908;-72
2021/10/21 00:06:39;;;;;;;;;;;20.90;99.90;;;;;;5092265;28;19908;-71
2021/10/21 00:09:06;;;;;;;;;;;21.00;99.90;;;;;;5092190;28;19908;-71
2021/10/21 00:11:33;;;;;;;;;;;21.10;99.90;;;;;;5092207;28;19908;-73
2021/10/21 00:13:59;;;;;;;;;;;21.00;99.90;;;;;;5091789;28;19908;-73
2021/10/21 00:16:27;;;;;;;;;;;21.10;99.90;;;;;;5092229;28;19916;-73
2021/10/21 00:18:54;;;;;;;;;;;21.20;99.90;;;;;;5073609;28;19909;-71
2021/10/21 00:21:21;;;;;;;;;;;21.20;99.90;;;;;;5091939;28;19908;-72
2021/10/21 00:23:48;;;;;;;;;;;21.30;99.90;;;;;;5091768;28;19912;-73
2021/10/21 00:26:14;;;;;;;;;;;21.30;99.90;;;;;;5090805;28;20108;-73
2021/10/21 00:28:41;;;;;;;;;;;21.30;99.90;;;;;;5091944;28;19908;-73
2021/10/21 00:31:08;;;;;;;;;;;21.50;99.90;;;;;;5092299;28;20430;-72
2021/10/21 00:33:35;;;;;;;;;;;21.50;99.90;;;;;;5091785;28;19919;-73
2021/10/21 00:36:01;;;;;;;;;;;21.60;99.90;;;;;;5092432;28;19916;-73
2021/10/21 00:38:28;;;;;;;;;;;21.80;99.90;;;;;;5096517;28;19954;-72
2021/10/21 00:40:55;;;;;;;;;;;21.90;99.90;;;;;;5096102;28;19919;-73
2021/10/21 00:43:21;;;;;;;;;;;22.10;99.90;;;;;;5096005;28;19947;-72
2021/10/21 00:45:48;;;;;;;;;;;22.20;99.20;;;;;;5095778;28;19912;-71
2021/10/21 00:48:15;;;;;;;;;;;22.40;99.90;;;;;;5096077;28;19932;-73
2021/10/21 00:50:41;;;;;;;;;;;23.00;99.40;;;;;;5095148;28;19908;-72
2021/10/21 00:53:10;;;;;;;;;;;22.80;99.10;;;;;;5095568;28;20003;-73
2021/10/21 00:55:37;;;;;;;;;;;23.00;99.70;;;;;;5079834;28;20335;-74
2021/10/21 00:58:03;;;;;;;;;;;23.30;98.70;;;;;;5096191;28;20344;-73
2021/10/21 01:00:34;;;;;;;;;;;23.80;97.70;;;;;;5095737;28;19912;-74
2021/10/21 01:03:00;;;;;;;;;;;24.10;98.10;;;;;;5095452;28;20375;-70
2021/10/21 01:05:27;;;;;;;;;;;24.00;98.40;;;;;;5095659;28;19919;-70
2021/10/21 01:07:54;;;;;;;;;;;24.50;97.50;;;;;;5095739;28;20343;-70
2021/10/21 01:10:21;;;;;;;;;;;24.10;98.00;;;;;;5095899;28;20017;-71
2021/10/21 01:12:47;;;;;;;;;;;24.10;98.40;;;;;;5093712;28;20037;-72
2021/10/21 01:15:18;;;;;;;;;;;24.20;97.60;;;;;;5095602;28;19915;-72
2021/10/21 01:17:46;;;;;;;;;;;24.10;98.10;;;;;;5095286;28;19912;-71
2021/10/21 01:20:13;;;;;;;;;;;24.10;97.80;;;;;;5094559;28;19908;-72
2021/10/21 01:22:41;;;;;;;;;;;24.10;97.40;;;;;;5095087;28;19947;-70
2021/10/21 01:25:08;;;;;;;;;;;23.80;97.10;;;;;;5095437;28;19912;-71
2021/10/21 01:27:34;;;;;;;;;;;23.70;98.00;;;;;;5094990;28;20018;-70
2021/10/21 01:30:01;;;;;;;;;;;23.50;98.00;;;;;;5095132;28;19931;-72
2021/10/21 01:32:34;;;;;;;;;;;23.30;99.00;;;;;;5095253;28;20354;-72
2021/10/21 01:35:02;;;;;;;;;;;23.40;97.80;;;;;;5094997;28;20026;-71
2021/10/21 01:37:30;;;;;;;;;;;23.00;97.60;;;;;;5095009;28;20011;-70
2021/10/21 01:39:57;;;;;;;;;;;22.90;97.90;;;;;;5093506;28;19908;-70
2021/10/21 01:42:28;;;;;;;;;;;22.80;96.00;;;;;;5094737;28;19924;-72
2021/10/21 01:44:55;;;;;;;;;;;22.60;97.60;;;;;;5093688;28;19911;-70
2021/10/21 01:47:22;;;;;;;;;;;22.40;98.00;;;;;;5094856;28;19954;-72
2021/10/21 01:49:48;;;;;;;;;;;22.40;98.80;;;;;;5093261;28;19920;-73
2021/10/21 01:52:16;;;;;;;;;;;22.30;99.40;;;;;;5094666;28;20006;-72
2021/10/21 01:54:42;;;;;;;;;;;22.30;97.90;;;;;;5094954;28;20349;-72
2021/10/21 01:57:09;;;;;;;;;;;22.30;98.70;;;;;;5094698;28;19920;-72
2021/10/21 01:59:36;;;;;;;;;;;22.30;98.50;;;;;;5094408;28;19912;-72
2021/10/21 02:02:02;;;;;;;;;;;22.20;97.30;;;;;;5076252;28;20287;-71
2021/10/21 02:04:29;;;;;;;;;;;22.30;99.20;;;;;;5094442;28;19934;-71
2021/10/21 02:06:56;;;;;;;;;;;22.20;97.80;;;;;;5094244;28;20006;-73
2021/10/21 02:09:23;;;;;;;;;;;22.20;98.50;;;;;;5094411;28;19908;-73
2021/10/21 02:11:49;;;;;;;;;;;22.30;98.90;;;;;;5094411;28;20708;-73
2021/10/21 02:14:16;;;;;;;;;;;22.30;97.60;;;;;;5094337;28;20374;-72
2021/10/21 02:16:43;;;;;;;;;;;22.20;99.10;;;;;;5094468;28;20466;-72
2021/10/21 02:19:09;;;;;;;;;;;22.20;98.20;;;;;;5093822;28;19963;-72
2021/10/21 02:21:36;;;;;;;;;;;22.20;99.80;;;;;;5093884;28;19911;-71
2021/10/21 02:24:03;;;;;;;;;;;22.10;99.00;;;;;;5094052;28;19909;-73
2021/10/21 02:26:29;;;;;;;;;;;22.00;98.80;;;;;;5094605;28;19908;-72
2021/10/21 02:28:56;;;;;;;;;;;21.80;98.20;;;;;;5094760;28;19915;-71
2021/10/21 02:31:23;;;;;;;;;;;21.80;97.10;;;;;;5094425;28;19915;-72
2021/10/21 02:33:51;;;;;;;;;;;21.80;98.60;;;;;;5094339;28;19913;-71
2021/10/21 02:36:17;;;;;;;;;;;21.80;95.20;;;;;;5095366;28;19908;-71
2021/10/21 02:38:44;;;;;;;;;;;21.80;98.60;;;;;;5094418;28;20454;-71
2021/10/21 02:41:11;;;;;;;;;;;22.00;99.40;;;;;;5094600;28;19912;-71
2021/10/21 02:43:38;;;;;;;;;;;22.10;99.70;;;;;;5094394;28;19962;-70
2021/10/21 02:46:04;;;;;;;;;;;21.90;99.90;;;;;;5076500;28;20363;-70
2021/10/21 02:48:31;;;;;;;;;;;22.00;99.40;;;;;;5094368;28;19912;-72
2021/10/21 02:50:58;;;;;;;;;;;21.80;98.30;;;;;;5093160;28;19915;-71
2021/10/21 02:53:24;;;;;;;;;;;21.70;98.00;;;;;;5093673;28;20369;-72
2021/10/21 02:55:51;;;;;;;;;;;21.50;98.80;;;;;;5093423;28;20278;-71
2021/10/21 02:58:18;;;;;;;;;;;21.60;98.80;;;;;;5093642;28;20003;-71
2021/10/21 03:00:45;;;;;;;;;;;21.60;97.40;;;;;;5093081;28;20303;-71
2021/10/21 03:03:11;;;;;;;;;;;21.60;99.60;;;;;;5093111;28;19916;-71
2021/10/21 03:05:41;;;;;;;;;;;21.60;98.00;;;;;;5092248;28;20328;-73
2021/10/21 03:08:08;;;;;;;;;;;21.80;98.60;;;;;;5093529;28;19915;-71
2021/10/21 03:10:35;;;;;;;;;;;21.80;97.90;;;;;;5093160;28;20015;-72
2021/10/21 03:13:02;;;;;;;;;;;21.90;96.80;;;;;;5092820;28;20298;-71
2021/10/21 03:15:29;;;;;;;;;;;22.00;97.30;;;;;;5093345;28;19908;-71
2021/10/21 03:17:56;;;;;;;;;;;21.80;98.30;;;;;;5093389;28;20374;-71
2021/10/21 03:20:22;;;;;;;;;;;21.70;99.80;;;;;;5092679;28;19908;-71
2021/10/21 03:22:49;;;;;;;;;;;21.60;99.30;;;;;;5074477;28;20333;-71
2021/10/21 03:25:16;;;;;;;;;;;21.70;99.20;;;;;;5092962;28;19912;-70
2021/10/21 03:27:42;;;;;;;;;;;21.60;99.90;;;;;;5092785;28;19962;-71
2021/10/21 03:30:10;;;;;;;;;;;21.60;99.90;;;;;;5092782;28;19908;-71
2021/10/21 03:32:37;;;;;;;;;;;21.70;99.80;;;;;;5092924;28;19955;-71
2021/10/21 03:35:05;;;;;;;;;;;21.70;99.90;;;;;;5092780;28;19916;-72
2021/10/21 03:37:31;;;;;;;;;;;21.70;99.60;;;;;;5092531;28;20347;-71
2021/10/21 03:39:58;;;;;;;;;;;21.60;98.40;;;;;;5093390;28;20441;-71
2021/10/21 03:42:24;;;;;;;;;;;21.50;99.00;;;;;;5092382;28;20319;-72
2021/10/21 03:44:54;;;;;;;;;;;21.50;99.20;;;;;;5092571;28;19916;-70
2021/10/21 03:47:20;;;;;;;;;;;21.50;99.10;;;;;;5092663;28;19978;-71
2021/10/21 03:49:47;;;;;;;;;;;21.40;99.30;;;;;;5073758;28;20000;-72
2021/10/21 03:52:14;;;;;;;;;;;21.50;99.50;;;;;;5092554;28;19916;-71
2021/10/21 03:54:40;;;;;;;;;;;21.40;98.80;;;;;;5092515;28;19930;-72
2021/10/21 03:57:07;;;;;;;;;;;21.50;98.40;;;;;;5092526;28;19963;-71
2021/10/21 03:59:34;;;;;;;;;;;21.50;98.00;;;;;;5092441;28;19912;-70
2021/10/21 04:02:01;;;;;;;;;;;21.40;98.20;;;;;;5092248;28;19969;-71
2021/10/21 04:04:27;;;;;;;;;;;21.40;97.90;;;;;;5092185;28;19908;-71
2021/10/21 04:06:54;;;;;;;;;;;21.40;99.90;;;;;;5092128;28;19908;-72
2021/10/21 04:09:20;;;;;;;;;;;21.40;99.80;;;;;;5092457;28;20351;-72
2021/10/21 04:11:47;;;;;;;;;;;21.30;99.90;;;;;;5091662;28;19908;-72
2021/10/21 04:14:14;;;;;;;;;;;21.30;99.90;;;;;;5092216;28;19953;-72
2021/10/21 04:16:42;;;;;;;;;;;21.40;99.90;;;;;;5092187;28;19931;-72
2021/10/21 04:19:09;;;;;;;;;;;21.40;99.90;;;;;;5091918;28;19908;-71
2021/10/21 04:21:36;;;;;;;;;;;21.50;99.70;;;;;;5092050;28;20057;-71
2021/10/21 04:24:03;;;;;;;;;;;21.40;99.90;;;;;;5092300;28;19912;-71
2021/10/21 04:26:29;;;;;;;;;;;21.40;99.90;;;;;;5092315;28;20002;-72
2021/10/21 04:28:56;;;;;;;;;;;21.30;99.60;;;;;;5091780;28;20440;-71
2021/10/21 04:31:23;;;;;;;;;;;21.40;99.70;;;;;;5092086;28;20001;-72
2021/10/21 04:33:49;;;;;;;;;;;21.40;99.90;;;;;;5091759;28;20009;-72
2021/10/21 04:36:16;;;;;;;;;;;21.40;99.90;;;;;;5092077;28;20256;-71
2021/10/21 04:38:43;;;;;;;;;;;21.20;99.90;;;;;;5091957;28;19908;-72
2021/10/21 04:41:09;;;;;;;;;;;21.20;99.90;;;;;;5092175;28;19916;-73
2021/10/21 04:43:36;;;;;;;;;;;21.10;99.90;;;;;;5091789;28;20359;-71
2021/10/21 04:46:03;;;;;;;;;;;21.00;99.90;;;;;;5092095;28;19916;-71
2021/10/21 04:48:29;;;;;;;;;;;21.00;99.90;;;;;;5091773;28;19908;-71
2021/10/21 04:50:56;;;;;;;;;;;20.90;99.90;;;;;;5091263;28;20421;-71
2021/10/21 04:53:23;;;;;;;;;;;20.90;99.90;;;;;;5073512;28;20045;-70
2021/10/21 04:55:50;;;;;;;;;;;20.80;99.90;;;;;;5091906;28;19916;-71
2021/10/21 04:58:17;;;;;;;;;;;20.90;99.90;;;;;;5091975;28;19972;-70
2021/10/21 05:00:43;;;;;;;;;;;21.00;99.90;;;;;;5091682;28;19927;-71
2021/10/21 05:03:11;;;;;;;;;;;20.90;99.90;;;;;;5091793;28;19916;-70
2021/10/21 05:05:40;;;;;;;;;;;20.80;99.90;;;;;;5091642;28;19908;-70
2021/10/21 05:08:07;;;;;;;;;;;20.80;99.90;;;;;;5091960;28;19908;-72
2021/10/21 05:10:37;;;;;;;;;;;20.90;99.90;;;;;;5092138;28;20023;-71
2021/10/21 05:13:04;;;;;;;;;;;20.90;99.90;;;;;;5036870;28;19912;-72
2021/10/21 05:15:30;;;;;;;;;;;20.90;99.90;;;;;;5071360;28;19908;-71
2021/10/21 05:17:57;;;;;;;;;;;21.00;99.90;;;;;;5071660;28;19909;-71
2021/10/21 05:20:24;;;;;;;;;;;21.00;99.90;;;;;;5069826;28;19916;-71
2021/10/21 05:22:51;;;;;;;;;;;20.90;99.90;;;;;;5072166;28;19920;-72
2021/10/21 05:25:18;;;;;;;;;;;20.90;99.90;;;;;;5075098;28;20332;-71
2021/10/21 05:27:45;;;;;;;;;;;20.90;99.90;;;;;;5075171;28;19964;-72
2021/10/21 05:30:12;;;;;;;;;;;20.60;99.90;;;;;;5052521;28;19909;-71
2021/10/21 05:32:38;;;;;;;;;;;20.70;99.90;;;;;;5074570;28;19908;-71
2021/10/21 05:35:05;;;;;;;;;;;20.60;99.90;;;;;;5074707;28;19924;-71
2021/10/21 05:37:32;;;;;;;;;;;20.60;99.90;;;;;;5073869;28;19930;-71
2021/10/21 05:39:58;;;;;;;;;;;20.60;99.90;;;;;;5074405;28;19909;-71
2021/10/21 05:42:25;;;;;;;;;;;20.60;99.90;;;;;;5074705;28;19955;-71
2021/10/21 05:44:52;;;;;;;;;;;20.50;99.90;;;;;;5074498;28;19915;-72
2021/10/21 05:47:18;;;;;;;;;;;20.70;99.90;;;;;;5074580;28;19962;-71
2021/10/21 05:49:46;;;;;;;;;;;20.60;99.90;;;;;;5074157;28;20317;-70
2021/10/21 05:52:12;;;;;;;;;;;20.60;99.90;;;;;;5071653;28;19908;-72
2021/10/21 05:54:39;;;;;;;;;;;20.50;99.90;;;;;;5071105;28;19944;-70
2021/10/21 05:57:06;;;;;;;;;;;20.50;99.90;;;;;;5090491;28;20399;-70
2021/10/21 05:59:32;;;;;;;;;;;20.40;99.90;;;;;;5092941;28;19912;-69
2021/10/21 06:02:00;;;;;;;;;;;20.40;99.90;;;;;;5092394;28;19952;-71
2021/10/21 06:04:26;;;;;;;;;;;20.40;99.90;;;;;;5092094;28;19953;-72
2021/10/21 06:06:53;;;;;;;;;;;20.40;99.90;;;;;;5092071;28;20003;-71
2021/10/21 06:09:23;;;;;;;;;;;20.40;99.90;;;;;;5092247;28;19916;-71
2021/10/21 06:11:51;;;;;;;;;;;20.20;99.90;;;;;;5092108;28;19953;-71
2021/10/21 06:14:18;;;;;;;;;;;20.20;99.90;;;;;;5092033;28;19919;-70
2021/10/21 06:16:47;;;;;;;;;;;20.20;99.90;;;;;;5091957;28;20268;-71
2021/10/21 06:19:15;;;;;;;;;;;20.20;99.90;;;;;;5091548;28;19939;-71
2021/10/21 06:21:46;;;;;;;;;;;20.30;99.90;;;;;;5092048;28;19965;-71
2021/10/21 06:24:13;;;;;;;;;;;20.20;99.90;;;;;;5091963;28;20023;-72
2021/10/21 06:26:40;;;;;;;;;;;20.00;99.90;;;;;;5092145;28;20002;-71
2021/10/21 06:29:06;;;;;;;;;;;20.00;99.90;;;;;;5091719;28;20239;-70
2021/10/21 06:31:33;;;;;;;;;;;19.80;99.90;;;;;;5091386;28;19951;-73
2021/10/21 06:34:00;;;;;;;;;;;19.90;99.90;;;;;;5090915;28;19920;-71
2021/10/21 06:36:27;;;;;;;;;;;19.80;99.90;;;;;;5091706;28;19908;-70
2021/10/21 06:38:54;;;;;;;;;;;19.70;99.90;;;;;;5091395;28;19908;-74
2021/10/21 06:41:20;;;;;;;;;;;19.70;99.90;;;;;;5091450;28;19934;-71
2021/10/21 06:43:47;;;;;;;;;;;19.70;99.90;;;;;;5089014;28;20007;-72
2021/10/21 06:46:14;;;;;;;;;;;19.70;99.90;;;;;;5090315;28;20350;-71
2021/10/21 06:48:40;;;;;;;;;;;19.70;99.90;;;;;;5091275;28;19935;-71
2021/10/21 06:51:07;;;;;;;;;;;19.60;99.90;;;;;;5091273;28;19908;-71
2021/10/21 06:53:34;;;;;;;;;;;19.60;99.90;;;;;;5089604;28;19908;-74
2021/10/21 06:56:00;;;;;;;;;;;19.60;99.90;;;;;;5091220;28;19920;-71
2021/10/21 06:58:28;;;;;;;;;;;19.70;99.90;;;;;;5091178;28;19916;-71
2021/10/21 07:00:55;;;;;;;;;;;19.70;99.90;;;;;;5091300;28;19915;-72
2021/10/21 07:03:21;;;;;;;;;;;19.70;99.90;;;;;;5091162;28;19923;-72
2021/10/21 07:05:51;;;;;;;;;;;19.70;99.90;;;;;;5091583;28;19965;-71
2021/10/21 07:08:20;;;;;;;;;;;19.60;99.90;;;;;;5091589;28;20256;-71
2021/10/21 07:10:50;;;;;;;;;;;19.60;99.90;;;;;;5090901;28;20350;-72
2021/10/21 07:13:16;;;;;;;;;;;19.60;99.90;;;;;;5091347;28;19915;-72
2021/10/21 07:15:43;;;;;;;;;;;19.70;99.90;;;;;;5090894;28;20312;-72
2021/10/21 07:18:10;;;;;;;;;;;19.70;99.90;;;;;;5090975;28;20019;-72
2021/10/21 07:20:37;;;;;;;;;;;19.70;99.90;;;;;;5090795;28;19912;-70
2021/10/21 07:23:03;;;;;;;;;;;19.70;99.90;;;;;;5055828;28;19924;-72
2021/10/21 07:25:30;;;;;;;;;;;19.70;99.90;;;;;;5091220;28;19923;-71
2021/10/21 07:28:01;;;;;;;;;;;19.70;99.90;;;;;;5091420;28;19916;-76
2021/10/21 07:30:29;;;;;;;;;;;19.70;99.90;;;;;;5091128;28;19919;-71
2021/10/21 07:32:58;;;;;;;;;;;19.70;99.90;;;;;;5079407;28;20446;-73
2021/10/21 07:35:25;;;;;;;;;;;19.70;99.90;;;;;;5071039;28;19982;-72
2021/10/21 07:37:52;;;;;;;;;;;19.70;99.90;;;;;;5070539;28;19908;-72
2021/10/21 07:40:19;;;;;;;;;;;19.70;99.90;;;;;;5070964;28;19920;-72
2021/10/21 07:42:45;;;;;;;;;;;19.60;99.90;;;;;;5070724;28;19924;-72
2021/10/21 07:45:12;;;;;;;;;;;19.60;99.90;;;;;;5070678;28;20436;-71
2021/10/21 07:47:39;;;;;;;;;;;19.60;99.90;;;;;;5068934;28;19999;-73
2021/10/21 07:50:07;;;;;;;;;;;19.50;99.90;;;;;;5070883;28;19909;-73
2021/10/21 07:52:38;;;;;;;;;;;19.40;99.90;;;;;;5070932;28;20609;-71
2021/10/21 07:55:08;;;;;;;;;;;19.40;99.90;;;;;;5071788;28;20000;-72
2021/10/21 07:57:35;;;;;;;;;;;19.40;99.90;;;;;;5091204;28;19916;-71
2021/10/21 08:00:03;;;;;;;;;;;19.40;99.90;;;;;;5090167;28;20363;-72
2021/10/21 08:02:30;;;;;;;;;;;19.30;99.90;;;;;;5089811;28;20260;-72
2021/10/21 08:04:57;;;;;;;;;;;19.30;99.90;;;;;;5090746;28;19994;-71
2021/10/21 08:07:23;;;;;;;;;;;19.20;99.90;;;;;;5092520;28;20371;-72
2021/10/21 08:09:50;;;;;;;;;;;19.20;99.90;;;;;;5092169;28;19912;-71
2021/10/21 08:12:17;;;;;;;;;;;19.20;99.90;;;;;;5092379;28;19908;-72
2021/10/21 08:14:44;;;;;;;;;;;19.20;99.90;;;;;;5092147;28;19915;-72
2021/10/21 08:17:11;;;;;;;;;;;19.20;99.90;;;;;;5091353;28;19953;-73
2021/10/21 08:19:37;;;;;;;;;;;19.20;99.90;;;;;;5092006;28;19981;-73
2021/10/21 08:22:04;;;;;;;;;;;19.20;99.90;;;;;;5091938;28;19918;-70
2021/10/21 08:24:31;;;;;;;;;;;19.20;99.90;;;;;;5091139;28;19908;-72
2021/10/21 08:26:58;;;;;;;;;;;19.20;99.90;;;;;;5092561;28;20377;-70
2021/10/21 08:29:24;;;;;;;;;;;19.10;99.90;;;;;;5090956;28;19943;-73
2021/10/21 08:32:03;;;;;;;;;;;19.10;99.90;;;;;;5091715;28;19908;-71
2021/10/21 08:34:30;;;;;;;;;;;19.10;99.90;;;;;;5092316;28;19908;-71
2021/10/21 08:36:57;;;;;;;;;;;19.00;99.90;;;;;;5092307;28;19908;-71
2021/10/21 08:39:24;;;;;;;;;;;19.00;99.90;;;;;;5092165;28;19915;-71
2021/10/21 08:41:50;;;;;;;;;;;18.90;99.90;;;;;;5092008;28;19912;-70
2021/10/21 08:44:17;;;;;;;;;;;18.90;99.90;;;;;;5092069;28;19912;-71
2021/10/21 08:46:45;;;;;;;;;;;18.90;99.90;;;;;;5092123;28;19973;-71
2021/10/21 08:49:12;;;;;;;;;;;19.00;99.90;;;;;;5091813;28;19961;-70
2021/10/21 08:51:39;;;;;;;;;;;19.00;99.90;;;;;;5091356;28;19908;-71
2021/10/21 08:54:06;;;;;;;;;;;19.00;99.90;;;;;;5091649;28;20321;-71
2021/10/21 08:56:33;;;;;;;;;;;19.00;99.90;;;;;;5091704;28;20003;-71
2021/10/21 08:59:01;;;;;;;;;;;19.00;99.90;;;;;;5095310;28;19967;-70
2021/10/21 09:01:49;;;;;;;;;;;19.00;99.90;;;;;;5082407;28;19962;-70
2021/10/21 09:09:34;;;;;;;;;;;19.00;99.90;;;;;;5075162;28;19962;-71
2021/10/21 09:12:19;;;;;;;;;;;19.00;99.90;;;;;;5074912;28;19909;-72
2021/10/21 09:14:47;;;;;;;;;;;19.00;99.90;;;;;;5075329;28;20371;-71
2021/10/21 09:17:14;;;;;;;;;;;19.00;99.90;;;;;;5075090;28;19996;-71
2021/10/21 09:19:42;;;;;;;;;;;19.00;99.90;;;;;;5074817;28;19943;-71
2021/10/21 09:22:28;;;;;;;;;;;19.00;99.90;;;;;;5074395;28;20379;-71
2021/10/21 09:25:05;;;;;;;;;;;19.00;99.90;;;;;;5074772;28;19913;-71
2021/10/21 09:27:35;;;;;;;;;;;19.10;99.90;;;;;;5074924;28;19943;-71
2021/10/21 09:30:04;;;;;;;;;;;19.10;99.90;;;;;;5075071;28;19962;-70
2021/10/21 09:32:35;;;;;;;;;;;19.10;99.90;;;;;;5074430;28;19912;-70
2021/10/21 09:35:03;;;;;;;;;;;19.10;99.90;;;;;;5074975;28;19908;-71
2021/10/21 09:37:31;;;;;;;;;;;19.10;99.90;;;;;;5074816;28;19987;-72
2021/10/21 09:39:59;;;;;;;;;;;19.10;99.90;;;;;;5074706;28;19915;-70
2021/10/21 09:42:36;;;;;;;;;;;19.00;99.90;;;;;;5074573;28;19912;-71
2021/10/21 09:45:20;;;;;;;;;;;19.10;99.90;;;;;;5074685;28;19917;-71
2021/10/21 09:47:48;;;;;;;;;;;19.00;99.90;;;;;;5074385;28;19939;-71
2021/10/21 09:50:35;;;;;;;;;;;19.00;99.90;;;;;;5074272;28;20318;-72
2021/10/21 09:53:36;;;;;;;;;;;19.00;99.90;;;;;;5074351;28;19979;-70
2021/10/21 09:56:05;;;;;;;;;;;19.10;99.90;;;;;;5052119;28;19920;-73
2021/10/21 09:58:33;;;;;;;;;;;19.10;99.90;;;;;;5070414;28;19934;-71
2021/10/21 10:01:10;;;;;;;;;;;19.10;99.90;;;;;;5074184;28;19908;-72
2021/10/21 10:03:39;;;;;;;;;;;19.00;99.90;;;;;;5073706;28;19917;-72
2021/10/21 10:06:06;;;;;;;;;;;19.10;99.90;;;;;;5074099;28;19944;-72
2021/10/21 10:08:33;;;;;;;;;;;19.10;99.90;;;;;;5074115;28;20271;-73
2021/10/21 10:11:00;;;;;;;;;;;19.10;99.90;;;;;;5073721;28;19909;-72
2021/10/21 10:13:28;;;;;;;;;;;19.10;99.90;;;;;;5074352;28;19995;-71
2021/10/21 10:15:55;;;;;;;;;;;19.00;99.90;;;;;;5106485;28;19908;-71
2021/10/21 10:18:23;;;;;;;;;;;19.00;99.90;;;;;;5074196;28;20348;-72
2021/10/21 10:21:03;;;;;;;;;;;19.00;99.90;;;;;;5073339;28;20214;-71
2021/10/21 10:23:33;;;;;;;;;;;19.10;99.90;;;;;;5073566;28;19916;-71
2021/10/21 10:25:59;;;;;;;;;;;19.00;99.90;;;;;;5073936;28;20390;-73
2021/10/21 10:28:46;;;;;;;;;;;19.10;99.90;;;;;;5073832;28;20427;-73
2021/10/21 10:31:32;;;;;;;;;;;19.10;99.90;;;;;;5072846;28;19913;-71
2021/10/21 10:33:59;;;;;;;;;;;19.20;99.90;;;;;;5074190;28;19947;-71
2021/10/21 10:36:30;;;;;;;;;;;19.20;99.90;;;;;;5075737;28;19919;-71
2021/10/21 10:38:58;;;;;;;;;;;19.30;99.90;;;;;;5076785;28;20287;-71
2021/10/21 10:41:43;;;;;;;;;;;19.20;99.90;;;;;;5106423;28;19913;-71
2021/10/21 10:44:30;;;;;;;;;;;19.30;99.90;;;;;;5074259;28;20362;-73
2021/10/21 10:46:56;;;;;;;;;;;19.20;99.90;;;;;;5076120;28;19908;-71
2021/10/21 10:49:38;;;;;;;;;;;19.30;99.90;;;;;;5076104;28;19916;-72
2021/10/21 10:52:11;;;;;;;;;;;19.20;99.90;;;;;;5075990;28;19908;-73
2021/10/21 10:54:47;;;;;;;;;;;19.10;99.90;;;;;;5074377;28;20319;-71
2021/10/21 10:57:14;;;;;;;;;;;19.10;99.90;;;;;;5076507;28;20318;-72
2021/10/21 10:59:42;;;;;;;;;;;19.00;99.90;;;;;;5075716;28;19951;-71
2021/10/21 11:02:33;;;;;;;;;;;18.90;99.90;;;;;;5075049;28;19916;-71
2021/10/21 11:05:05;;;;;;;;;;;18.80;99.90;;;;;;5075963;28;20003;-72
2021/10/21 11:07:41;;;;;;;;;;;18.80;99.90;;;;;;5074917;28;19916;-71
2021/10/21 11:12:43;;;;;;;;;;;18.70;99.90;;;;;;5073526;28;20344;-72
2021/10/21 11:15:28;;;;;;;;;;;18.80;99.90;;;;;;5073099;28;19931;-72
2021/10/21 11:17:55;;;;;;;;;;;18.80;99.90;;;;;;5073427;28;19951;-71
2021/10/21 11:20:42;;;;;;;;;;;18.90;99.90;;;;;;5073526;28;20387;-71
2021/10/21 11:23:30;;;;;;;;;;;18.90;99.90;;;;;;5072724;28;20366;-71
2021/10/21 11:26:03;;;;;;;;;;;18.90;99.90;;;;;;5072523;28;20563;-71
2021/10/21 11:28:31;;;;;;;;;;;18.80;99.90;;;;;;5072720;28;19912;-73
2021/10/21 11:30:59;;;;;;;;;;;18.80;99.90;;;;;;5071962;28;19950;-72
2021/10/21 11:33:28;;;;;;;;;;;18.80;99.90;;;;;;5072229;28;19951;-70
2021/10/21 11:36:01;;;;;;;;;;;18.70;99.90;;;;;;5072776;28;20065;-71
2021/10/21 11:38:29;;;;;;;;;;;18.70;99.90;;;;;;5072620;28;19995;-71
2021/10/21 11:40:58;;;;;;;;;;;18.70;99.90;;;;;;5072570;28;19912;-71
2021/10/21 11:43:27;;;;;;;;;;;18.70;99.90;;;;;;5072405;28;19916;-71
2021/10/21 11:45:54;;;;;;;;;;;18.70;99.90;;;;;;5071709;28;19915;-71
2021/10/21 11:48:24;;;;;;;;;;;18.60;99.90;;;;;;5072501;28;19951;-71
2021/10/21 11:50:51;;;;;;;;;;;18.70;99.90;;;;;;5072705;28;19931;-71
2021/10/21 11:53:19;;;;;;;;;;;18.60;99.90;;;;;;5072313;28;20378;-72
2021/10/21 11:55:47;;;;;;;;;;;18.60;99.90;;;;;;5072207;28;19993;-71
2021/10/21 11:58:15;;;;;;;;;;;18.50;99.90;;;;;;5072432;28;19916;-71
2021/10/21 12:00:46;;;;;;;;;;;18.40;99.90;;;;;;5071542;28;19909;-71
2021/10/21 12:03:12;;;;;;;;;;;18.40;99.90;;;;;;5071313;28;19917;-71
2021/10/21 12:05:40;;;;;;;;;;;18.30;99.90;;;;;;5071867;28;19995;-71
2021/10/21 12:08:08;;;;;;;;;;;18.20;99.90;;;;;;5072372;28;20363;-73
2021/10/21 12:10:36;;;;;;;;;;;18.20;99.90;;;;;;5072304;28;19996;-71
2021/10/21 12:13:04;;;;;;;;;;;18.10;99.90;;;;;;5072279;28;20007;-71
2021/10/21 12:15:34;;;;;;;;;;;18.10;99.90;;;;;;5071841;28;19909;-71
2021/10/21 12:18:05;;;;;;;;;;;18.00;99.90;;;;;;5072501;28;20322;-71
2021/10/21 12:20:41;;;;;;;;;;;18.00;99.90;;;;;;5072514;28;20386;-72
2021/10/21 12:23:15;;;;;;;;;;;18.00;99.90;;;;;;5072311;28;19920;-72
2021/10/21 12:25:42;;;;;;;;;;;18.00;99.90;;;;;;5071875;28;19909;-70
2021/10/21 12:28:08;;;;;;;;;;;18.00;99.90;;;;;;5072511;28;19916;-71
2021/10/21 12:30:38;;;;;;;;;;;18.00;99.90;;;;;;5072094;28;19966;-72
2021/10/21 12:33:08;;;;;;;;;;;17.90;99.90;;;;;;5074129;28;20267;-72
2021/10/21 12:35:35;;;;;;;;;;;17.90;99.90;;;;;;5076020;28;19909;-72
2021/10/21 12:38:05;;;;;;;;;;;17.90;99.90;;;;;;5076262;28;19970;-72
2021/10/21 12:40:36;;;;;;;;;;;17.90;99.90;;;;;;5076082;28;19909;-71
2021/10/21 12:43:17;;;;;;;;;;;17.90;99.90;;;;;;5075947;28;19916;-72
2021/10/21 12:45:44;;;;;;;;;;;18.00;99.90;;;;;;5075702;28;19912;-72
2021/10/21 12:48:29;;;;;;;;;;;17.90;99.90;;;;;;5075965;28;19915;-71
2021/10/21 12:51:10;;;;;;;;;;;18.00;99.90;;;;;;5075858;28;19920;-72
2021/10/21 12:53:37;;;;;;;;;;;18.00;99.90;;;;;;5075615;28;19908;-72
2021/10/21 12:56:22;;;;;;;;;;;18.00;99.90;;;;;;5075847;28;19920;-72
2021/10/21 12:59:09;;;;;;;;;;;17.90;99.90;;;;;;5075879;28;20386;-73
2021/10/21 13:01:54;;;;;;;;;;;18.00;99.90;;;;;;5075288;28;19919;-72
2021/10/21 13:04:37;;;;;;;;;;;17.90;99.90;;;;;;5075734;28;19923;-72
2021/10/21 13:07:04;;;;;;;;;;;17.90;99.90;;;;;;5075717;28;20268;-71
2021/10/21 13:09:31;;;;;;;;;;;17.90;99.90;;;;;;5075439;28;19909;-72
2021/10/21 13:11:58;;;;;;;;;;;17.90;99.90;;;;;;5075729;28;19909;-72
2021/10/21 13:14:28;;;;;;;;;;;17.80;99.90;;;;;;5075797;28;19908;-71
2021/10/21 13:16:55;;;;;;;;;;;17.90;99.90;;;;;;5075256;28;19954;-72
2021/10/21 13:19:21;;;;;;;;;;;17.90;99.90;;;;;;5075518;28;19975;-71
2021/10/21 13:21:48;;;;;;;;;;;17.90;99.90;;;;;;5075296;28;19912;-71
2021/10/21 13:24:14;;;;;;;;;;;17.90;99.90;;;;;;5075223;28;19986;-71
2021/10/21 13:26:41;;;;;;;;;;;18.00;99.90;;;;;;5075403;28;19912;-71
2021/10/21 13:29:08;;;;;;;;;;;18.00;99.90;;;;;;5075303;28;19909;-72
2021/10/21 13:31:34;;;;;;;;;;;18.10;99.90;;;;;;5074845;28;19909;-72
2021/10/21 13:34:01;;;;;;;;;;;18.20;99.90;;;;;;5075268;28;19999;-71
2021/10/21 13:36:28;;;;;;;;;;;18.20;99.90;;;;;;5075195;28;19908;-71
2021/10/21 13:38:55;;;;;;;;;;;18.20;99.90;;;;;;5075110;28;19916;-71
2021/10/21 13:41:22;;;;;;;;;;;18.20;99.90;;;;;;5073750;28;19932;-71
2021/10/21 13:43:49;;;;;;;;;;;18.20;99.90;;;;;;5073498;28;20355;-71
2021/10/21 13:46:17;;;;;;;;;;;18.10;99.90;;;;;;5074784;28;19963;-73
2021/10/21 13:48:43;;;;;;;;;;;18.10;99.90;;;;;;5074916;28;19908;-71
2021/10/21 13:51:10;;;;;;;;;;;18.10;99.90;;;;;;5075090;28;19912;-71
2021/10/21 13:53:37;;;;;;;;;;;18.10;99.90;;;;;;5075047;28;19916;-71
2021/10/21 13:56:06;;;;;;;;;;;18.10;99.90;;;;;;5074833;28;20410;-73
2021/10/21 13:58:33;;;;;;;;;;;18.10;99.90;;;;;;5074994;28;19909;-72
2021/10/21 14:00:59;;;;;;;;;;;18.10;99.90;;;;;;5074567;28;19909;-72
2021/10/21 14:03:26;;;;;;;;;;;18.10;99.90;;;;;;5074615;28;19916;-72
2021/10/21 14:05:53;;;;;;;;;;;18.10;99.90;;;;;;5074326;28;19908;-72
2021/10/21 14:08:19;;;;;;;;;;;18.10;99.90;;;;;;5074635;28;20303;-71
2021/10/21 14:10:46;;;;;;;;;;;18.00;99.90;;;;;;5074395;28;19913;-72
2021/10/21 14:13:13;;;;;;;;;;;18.10;99.90;;;;;;5074305;28;19974;-72
2021/10/21 14:15:40;;;;;;;;;;;18.10;99.90;;;;;;5073981;28;19995;-72
2021/10/21 14:18:07;;;;;;;;;;;18.00;99.90;;;;;;5074586;28;20347;-74
2021/10/21 14:20:34;;;;;;;;;;;18.00;99.90;;;;;;5074250;28;20359;-73
2021/10/21 14:23:01;;;;;;;;;;;18.00;99.90;;;;;;5074333;28;20367;-73
2021/10/21 14:25:28;;;;;;;;;;;18.00;99.90;;;;;;5074172;28;19913;-73
2021/10/21 14:27:54;;;;;;;;;;;18.00;99.90;;;;;;5073835;28;19909;-72
2021/10/21 14:30:21;;;;;;;;;;;18.00;99.90;;;;;;5073878;28;19916;-72
2021/10/21 14:32:48;;;;;;;;;;;17.90;99.90;;;;;;5073982;28;19909;-73